createdAt,value
2018-05-15T00:01:31.484Z,7.93
2018-05-15T00:03:57.395Z,11.23
2018-05-15T00:06:23.155Z,9.60
2018-05-15T00:08:48.907Z,9.93
2018-05-15T00:11:14.757Z,11.37
2018-05-15T00:13:40.510Z,9.13
2018-05-15T00:16:06.307Z,9.43
2018-05-15T00:18:32.088Z,7.47
2018-05-15T00:20:57.834Z,9.63
2018-05-15T00:23:23.583Z,9.73
2018-05-15T00:25:49.336Z,9.50
2018-05-15T00:28:15.087Z,8.27
2018-05-15T00:30:40.816Z,10.90
2018-05-15T00:33:06.576Z,10.00
2018-05-15T00:35:32.335Z,14.50
2018-05-15T00:37:58.219Z,10.73
2018-05-15T00:40:24.081Z,9.67
2018-05-15T00:42:49.810Z,12.47
2018-05-15T00:45:15.554Z,9.90
2018-05-15T00:47:41.333Z,10.47
2018-05-15T00:50:07.087Z,9.17
2018-05-15T00:52:32.844Z,8.33
2018-05-15T00:55:11.023Z,12.07
2018-05-15T00:57:36.782Z,14.40
2018-05-15T01:00:02.924Z,8.93
2018-05-15T01:02:28.764Z,12.13
2018-05-15T01:04:54.596Z,9.33
2018-05-15T01:07:20.348Z,13.20
2018-05-15T01:09:46.117Z,11.43
2018-05-15T01:12:11.883Z,9.03
2018-05-15T01:14:37.633Z,11.43
2018-05-15T01:17:03.395Z,12.23
2018-05-15T01:19:29.155Z,9.33
2018-05-15T01:21:54.899Z,18.00
2018-05-15T01:24:20.711Z,12.43
2018-05-15T01:26:46.482Z,9.63
2018-05-15T01:29:12.321Z,15.70
2018-05-15T01:31:38.040Z,12.50
2018-05-15T01:34:03.888Z,11.07
2018-05-15T01:36:29.772Z,13.27
2018-05-15T01:38:55.636Z,10.97
2018-05-15T01:41:21.375Z,12.00
2018-05-15T01:43:47.117Z,13.27
2018-05-15T01:46:12.968Z,13.43
2018-05-15T01:48:38.728Z,10.37
2018-05-15T01:51:04.481Z,27.43
2018-05-15T01:53:30.323Z,11.63
2018-05-15T01:55:56.119Z,21.43
2018-05-15T01:58:21.879Z,16.00
2018-05-15T02:00:47.768Z,13.10
2018-05-15T02:03:13.623Z,15.00
2018-05-15T02:05:39.378Z,11.63
2018-05-15T02:08:05.239Z,14.20
2018-05-15T02:10:30.984Z,13.50
2018-05-15T02:12:56.731Z,13.53
2018-05-15T02:15:22.511Z,15.60
2018-05-15T02:17:48.247Z,13.10
2018-05-15T02:20:14.016Z,19.27
2018-05-15T02:22:39.790Z,13.10
2018-05-15T02:25:05.560Z,13.90
2018-05-15T02:27:31.306Z,17.30
2018-05-15T02:29:57.206Z,15.67
2018-05-15T02:32:22.977Z,16.00
2018-05-15T02:34:48.722Z,17.13
2018-05-15T02:37:14.484Z,18.67
2018-05-15T02:39:40.245Z,19.43
2018-05-15T02:42:06.024Z,17.37
2018-05-15T02:44:31.788Z,17.77
2018-05-15T02:46:57.711Z,17.40
2018-05-15T02:49:23.464Z,18.43
2018-05-15T02:51:49.253Z,19.93
2018-05-15T02:54:14.997Z,18.30
2018-05-15T02:56:40.802Z,15.87
2018-05-15T02:59:06.576Z,18.10
2018-05-15T03:01:32.494Z,17.97
2018-05-15T03:03:58.263Z,19.43
2018-05-15T03:06:24.023Z,17.40
2018-05-15T03:08:49.779Z,19.80
2018-05-15T03:11:15.532Z,18.13
2018-05-15T03:13:41.317Z,19.47
2018-05-15T03:16:07.154Z,22.00
2018-05-15T03:18:39.911Z,20.60
2018-05-15T03:21:05.669Z,19.35
2018-05-15T03:23:31.484Z,21.23
2018-05-15T03:25:57.256Z,22.63
2018-05-15T03:28:23.097Z,25.03
2018-05-15T03:30:48.854Z,22.73
2018-05-15T03:33:14.628Z,22.10
2018-05-15T03:35:40.422Z,23.13
2018-05-15T03:38:06.179Z,24.00
2018-05-15T03:40:31.967Z,21.50
2018-05-15T03:42:58.147Z,25.50
2018-05-15T03:45:23.904Z,26.75
2018-05-15T03:47:49.677Z,20.37
2018-05-15T03:50:15.424Z,26.60
2018-05-15T03:52:41.180Z,21.53
2018-05-15T03:55:06.948Z,28.80
2018-05-15T03:57:32.716Z,20.80
2018-05-15T03:59:58.465Z,23.30
2018-05-15T04:02:36.639Z,22.90
2018-05-15T04:05:14.643Z,25.35
2018-05-15T04:07:52.779Z,22.73
2018-05-15T04:10:18.539Z,27.43
2018-05-15T04:12:44.312Z,29.07
2018-05-15T04:15:10.068Z,24.97
2018-05-15T04:17:35.826Z,22.60
2018-05-15T04:20:01.681Z,22.73
2018-05-15T04:22:27.573Z,22.40
2018-05-15T04:24:53.328Z,38.20
2018-05-15T04:27:19.088Z,23.37
2018-05-15T04:29:44.873Z,28.77
2018-05-15T04:32:10.631Z,20.13
2018-05-15T04:34:36.383Z,25.10
2018-05-15T04:37:02.151Z,21.23
2018-05-15T04:39:27.899Z,23.50
2018-05-15T04:41:53.655Z,26.17
2018-05-15T04:44:19.519Z,28.27
2018-05-15T04:46:45.290Z,23.47
2018-05-15T04:49:11.091Z,23.67
2018-05-15T04:51:36.832Z,24.13
2018-05-15T04:54:02.607Z,22.70
2018-05-15T04:56:28.383Z,22.20
2018-05-15T04:58:54.147Z,25.87
2018-05-15T05:01:19.884Z,22.90
2018-05-15T05:03:45.677Z,21.60
2018-05-15T05:06:11.420Z,22.80
2018-05-15T05:08:37.179Z,20.87
2018-05-15T05:11:02.960Z,21.47
2018-05-15T05:13:28.779Z,26.23
2018-05-15T05:15:54.643Z,20.87
2018-05-15T05:18:20.426Z,21.10
2018-05-15T05:20:46.176Z,20.67
2018-05-15T05:23:11.952Z,19.00
2018-05-15T05:25:37.744Z,20.80
2018-05-15T05:28:03.519Z,22.63
2018-05-15T05:30:29.268Z,22.43
2018-05-15T05:32:55.187Z,19.90
2018-05-15T05:35:20.957Z,19.23
2018-05-15T05:37:46.736Z,20.70
2018-05-15T05:40:12.568Z,18.83
2018-05-15T05:42:38.273Z,20.77
2018-05-15T05:45:04.111Z,16.90
2018-05-15T05:47:29.932Z,18.20
2018-05-15T05:49:55.686Z,22.63
2018-05-15T05:52:21.435Z,18.73
2018-05-15T05:54:47.205Z,21.73
2018-05-15T05:57:12.971Z,20.10
2018-05-15T05:59:38.737Z,18.87
2018-05-15T06:02:04.527Z,22.43
2018-05-15T06:04:30.280Z,18.30
2018-05-15T06:06:56.046Z,19.43
2018-05-15T06:09:21.822Z,15.47
2018-05-15T06:11:47.596Z,19.57
2018-05-15T06:14:13.520Z,17.93
2018-05-15T06:16:39.286Z,18.47
2018-05-15T06:19:05.031Z,17.47
2018-05-15T06:21:30.895Z,20.43
2018-05-15T06:23:56.654Z,16.23
2018-05-15T06:26:22.433Z,16.77
2018-05-15T06:28:48.176Z,17.07
2018-05-15T06:31:14.088Z,15.40
2018-05-15T06:33:39.828Z,20.20
2018-05-15T06:36:05.603Z,13.60
2018-05-15T06:38:31.459Z,17.57
2018-05-15T06:40:57.143Z,15.33
2018-05-15T06:43:22.911Z,15.73
2018-05-15T06:45:48.684Z,12.97
2018-05-15T06:48:14.431Z,12.40
2018-05-15T06:50:40.329Z,13.60
2018-05-15T06:53:06.236Z,14.87
2018-05-15T06:55:31.984Z,19.73
2018-05-15T06:57:57.750Z,15.60
2018-05-15T07:00:23.532Z,16.23
2018-05-15T07:02:49.283Z,17.10
2018-05-15T07:05:15.032Z,18.53
2018-05-15T07:07:40.876Z,14.90
2018-05-15T07:10:06.574Z,14.43
2018-05-15T07:12:32.317Z,13.70
2018-05-15T07:14:58.095Z,14.57
2018-05-15T07:17:23.898Z,15.37
2018-05-15T07:19:49.639Z,14.23
2018-05-15T07:22:15.391Z,13.50
2018-05-15T07:24:41.168Z,12.87
2018-05-15T07:27:06.929Z,12.47
2018-05-15T07:29:32.772Z,13.50
2018-05-15T07:31:58.531Z,14.73
2018-05-15T07:34:24.273Z,10.63
2018-05-15T07:36:50.058Z,12.07
2018-05-15T07:39:15.807Z,11.20
2018-05-15T07:41:41.592Z,15.23
2018-05-15T07:44:07.356Z,13.33
2018-05-15T07:46:33.119Z,8.30
2018-05-15T07:48:59.015Z,9.73
2018-05-15T07:51:24.804Z,13.40
2018-05-15T07:53:50.550Z,10.67
2018-05-15T07:56:16.337Z,9.10
2018-05-15T07:58:42.092Z,8.77
2018-05-15T08:01:07.872Z,12.20
2018-05-15T08:03:33.647Z,8.50
2018-05-15T08:05:59.506Z,7.77
2018-05-15T08:08:25.267Z,7.50
2018-05-15T08:10:51.037Z,5.90
2018-05-15T08:13:16.783Z,8.20
2018-05-15T08:15:42.553Z,5.80
2018-05-15T08:18:08.332Z,14.40
2018-05-15T08:20:34.090Z,13.93
2018-05-15T08:22:59.837Z,6.87
2018-05-15T08:25:25.603Z,11.80
2018-05-15T08:27:51.352Z,15.27
2018-05-15T08:30:17.095Z,16.83
2018-05-15T08:32:42.856Z,9.60
2018-05-15T08:35:08.604Z,15.53
2018-05-15T08:37:34.464Z,11.90
2018-05-15T08:40:00.139Z,12.20
2018-05-15T08:42:26.016Z,11.30
2018-05-15T08:44:51.802Z,9.50
2018-05-15T08:47:17.595Z,7.90
2018-05-15T08:49:43.353Z,8.07
2018-05-15T08:52:09.134Z,8.63
2018-05-15T08:54:34.930Z,9.53
2018-05-15T08:57:00.688Z,9.53
2018-05-15T08:59:26.440Z,9.37
2018-05-15T09:01:52.231Z,10.50
2018-05-15T09:04:17.988Z,6.80
2018-05-15T09:06:43.747Z,8.33
2018-05-15T09:09:09.511Z,7.90
2018-05-15T09:11:35.271Z,7.90
2018-05-15T09:14:01.125Z,6.00
2018-05-15T09:16:26.888Z,6.50
2018-05-15T09:18:52.771Z,6.67
2018-05-15T09:21:18.515Z,9.40
2018-05-15T09:23:44.375Z,6.53
2018-05-15T09:26:10.112Z,8.37
2018-05-15T09:28:35.872Z,6.37
2018-05-15T09:31:01.836Z,5.37
2018-05-15T09:33:27.762Z,5.53
2018-05-15T09:35:53.520Z,6.87
2018-05-15T09:41:14.098Z,8.53
2018-05-15T09:43:54.830Z,9.10
2018-05-15T09:46:20.581Z,6.10
2018-05-15T09:48:46.332Z,8.37
2018-05-15T09:51:12.106Z,10.63
2018-05-15T09:53:37.852Z,5.80
2018-05-15T09:56:03.643Z,9.50
2018-05-15T09:58:29.727Z,6.60
2018-05-15T10:00:55.615Z,7.33
2018-05-15T10:03:21.504Z,8.10
2018-05-15T10:05:47.284Z,15.40
2018-05-15T10:08:13.115Z,10.43
2018-05-15T10:10:39.091Z,8.43
2018-05-15T10:13:04.607Z,4.43
2018-05-15T10:15:30.355Z,6.60
2018-05-15T10:17:56.103Z,6.83
2018-05-15T10:20:21.865Z,7.77
2018-05-15T10:22:47.595Z,5.93
2018-05-15T10:25:13.381Z,10.77
2018-05-15T10:27:39.216Z,4.53
2018-05-15T10:30:05.023Z,6.70
2018-05-15T10:32:30.768Z,6.73
2018-05-15T10:34:56.530Z,6.80
2018-05-15T10:37:22.280Z,5.00
2018-05-15T10:39:48.050Z,4.87
2018-05-15T10:42:13.807Z,12.20
2018-05-15T10:44:39.551Z,7.30
2018-05-15T10:47:05.304Z,8.70
2018-05-15T10:49:31.219Z,7.40
2018-05-15T10:51:57.063Z,6.23
2018-05-15T10:54:22.819Z,5.80
2018-05-15T10:56:48.601Z,7.20
2018-05-15T10:59:14.356Z,7.30
2018-05-15T11:01:40.111Z,5.57
2018-05-15T11:04:05.891Z,10.47
2018-05-15T11:06:31.643Z,5.47
2018-05-15T11:08:57.612Z,4.73
2018-05-15T11:11:23.388Z,4.63
2018-05-15T11:13:49.153Z,5.23
2018-05-15T11:16:14.907Z,4.83
2018-05-15T11:18:40.723Z,6.70
2018-05-15T11:21:18.886Z,5.90
2018-05-15T11:27:02.183Z,7.97
2018-05-15T11:29:27.965Z,6.93
2018-05-15T11:31:53.712Z,7.43
2018-05-15T11:34:19.475Z,7.20
2018-05-15T11:36:45.257Z,8.57
2018-05-15T11:39:10.991Z,9.10
2018-05-15T11:41:36.794Z,8.13
2018-05-15T11:44:02.532Z,7.33
2018-05-15T11:46:28.298Z,7.03
2018-05-15T11:48:54.489Z,6.77
2018-05-15T11:51:20.416Z,5.93
2018-05-15T11:53:45.608Z,5.77
2018-05-15T11:56:11.372Z,6.00
2018-05-15T11:58:37.111Z,6.97
2018-05-15T12:01:17.860Z,5.97
2018-05-15T12:03:43.676Z,7.17
2018-05-15T12:06:09.404Z,4.97
2018-05-15T12:08:35.207Z,8.30
2018-05-15T12:11:00.978Z,6.67
2018-05-15T12:13:26.860Z,7.00
2018-05-15T12:15:52.623Z,6.20
2018-05-15T12:18:18.419Z,6.63
2018-05-15T12:20:44.154Z,4.00
2018-05-15T12:23:09.931Z,9.30
2018-05-15T12:25:35.710Z,6.80
2018-05-15T12:28:01.801Z,5.67
2018-05-15T12:30:27.690Z,5.20
2018-05-15T12:32:53.463Z,7.17
2018-05-15T12:35:19.215Z,4.90
2018-05-15T12:37:44.963Z,8.50
2018-05-15T12:40:10.746Z,9.40
2018-05-15T12:42:43.497Z,9.90
2018-05-15T12:45:09.274Z,7.67
2018-05-15T12:47:35.027Z,10.53
2018-05-15T12:50:00.811Z,8.40
2018-05-15T12:52:26.568Z,5.90
2018-05-15T12:54:52.323Z,18.77
2018-05-15T12:57:18.123Z,7.03
2018-05-15T12:59:43.879Z,5.80
2018-05-15T13:02:09.615Z,5.93
2018-05-15T13:04:35.400Z,11.00
2018-05-15T13:07:01.173Z,6.30
2018-05-15T13:09:26.937Z,7.67
2018-05-15T13:11:52.756Z,5.63
2018-05-15T13:14:18.520Z,9.80
2018-05-15T13:16:44.277Z,4.90
2018-05-15T13:19:10.059Z,5.13
2018-05-15T13:21:35.829Z,7.80
2018-05-15T13:24:01.827Z,4.43
2018-05-15T13:26:27.631Z,5.13
2018-05-15T13:28:53.378Z,5.20
2018-05-15T13:31:19.155Z,4.43
2018-05-15T13:33:44.927Z,5.93
2018-05-15T13:36:10.676Z,4.80
2018-05-15T13:38:36.418Z,4.57
2018-05-15T13:41:02.270Z,3.73
2018-05-15T13:43:27.982Z,5.77
2018-05-15T13:45:53.739Z,4.47
2018-05-15T13:48:19.522Z,8.63
2018-05-15T13:50:45.283Z,6.30
2018-05-15T13:53:11.045Z,5.00
2018-05-15T13:55:36.819Z,4.70
2018-05-15T13:58:02.596Z,8.90
2018-05-15T14:09:06.169Z,4.73
2018-05-15T14:11:31.959Z,6.33
2018-05-15T14:13:57.708Z,6.50
2018-05-15T14:16:23.573Z,4.07
2018-05-15T14:18:49.339Z,3.60
2018-05-15T14:21:15.087Z,4.17
2018-05-15T14:23:40.845Z,5.07
2018-05-15T14:26:06.648Z,8.90
2018-05-15T14:28:32.398Z,8.97
2018-05-15T14:30:58.147Z,6.80
2018-05-15T14:33:23.940Z,5.03
2018-05-15T14:35:49.727Z,7.83
2018-05-15T14:38:15.487Z,5.60
2018-05-15T14:40:41.288Z,5.53
2018-05-15T14:43:26.932Z,5.67
2018-05-15T14:45:52.703Z,5.77
2018-05-15T14:48:18.446Z,11.93
2018-05-15T14:53:46.238Z,9.10
2018-05-15T14:56:12.019Z,6.27
2018-05-15T14:58:37.779Z,6.60
2018-05-15T15:01:03.555Z,6.77
2018-05-15T15:03:29.353Z,8.63
2018-05-15T15:05:55.124Z,7.43
2018-05-15T15:08:20.875Z,4.40
2018-05-15T15:10:46.635Z,7.27
2018-05-15T15:13:12.387Z,6.83
2018-05-15T15:15:38.162Z,7.30
2018-05-15T15:18:04.060Z,6.27
2018-05-15T15:20:29.866Z,7.60
2018-05-15T15:22:55.628Z,6.13
2018-05-15T15:25:21.487Z,5.37
2018-05-15T15:27:47.164Z,5.03
2018-05-15T15:30:13.087Z,8.67
2018-05-15T15:32:38.819Z,10.30
2018-05-15T15:35:04.601Z,6.57
2018-05-15T15:37:30.367Z,10.90
2018-05-15T15:39:56.198Z,8.33
2018-05-15T15:42:22.005Z,5.30
2018-05-15T15:44:47.777Z,7.50
2018-05-15T15:47:13.515Z,5.30
2018-05-15T15:49:39.279Z,6.40
2018-05-15T15:52:05.101Z,9.40
2018-05-15T15:54:30.964Z,5.37
2018-05-15T15:56:56.863Z,8.20
2018-05-15T15:59:22.632Z,10.50
2018-05-15T16:01:48.395Z,6.57
2018-05-15T16:04:14.207Z,6.33
2018-05-15T16:06:39.992Z,7.27
2018-05-15T16:09:05.981Z,8.53
2018-05-15T16:11:31.733Z,5.57
2018-05-15T16:13:57.534Z,6.73
2018-05-15T16:16:23.279Z,8.40
2018-05-15T16:18:49.032Z,7.20
2018-05-15T16:21:14.789Z,5.47
2018-05-15T16:23:40.548Z,7.30
2018-05-15T16:26:06.295Z,9.80
2018-05-15T16:28:32.077Z,6.60
2018-05-15T16:30:57.819Z,6.40
2018-05-15T16:33:23.603Z,10.93
2018-05-15T16:35:49.375Z,5.80
2018-05-15T16:38:15.120Z,7.37
2018-05-15T16:40:40.859Z,5.73
2018-05-15T16:43:06.619Z,11.20
2018-05-15T16:45:39.383Z,7.10
2018-05-15T16:48:05.135Z,5.10
2018-05-15T16:50:30.907Z,4.77
2018-05-15T16:52:56.749Z,11.90
2018-05-15T16:55:22.516Z,8.23
2018-05-15T16:57:48.275Z,10.43
2018-05-15T17:00:14.028Z,10.33
2018-05-15T17:02:39.820Z,8.87
2018-05-15T17:05:05.567Z,6.40
2018-05-15T17:07:31.327Z,10.67
2018-05-15T17:09:57.169Z,6.00
2018-05-15T17:12:22.924Z,4.93
2018-05-15T17:14:48.712Z,12.90
2018-05-15T17:17:14.460Z,5.77
2018-05-15T17:19:40.322Z,6.37
2018-05-15T17:22:06.100Z,6.87
2018-05-15T17:24:31.875Z,8.33
2018-05-15T17:26:57.631Z,6.63
2018-05-15T17:29:23.389Z,8.50
2018-05-15T17:31:49.167Z,6.90
2018-05-15T17:34:14.917Z,8.90
2018-05-15T17:36:40.697Z,7.73
2018-05-15T17:39:06.470Z,10.63
2018-05-15T17:41:32.220Z,10.47
2018-05-15T17:43:58.113Z,6.17
2018-05-15T17:46:23.870Z,5.90
2018-05-15T17:48:49.613Z,5.00
2018-05-15T17:51:15.388Z,9.10
2018-05-15T17:53:41.149Z,8.40
2018-05-15T17:56:06.900Z,8.10
2018-05-15T17:58:32.772Z,10.30
2018-05-15T18:00:58.554Z,6.67
2018-05-15T18:03:24.315Z,6.13
2018-05-15T18:05:50.096Z,6.40
2018-05-15T18:08:15.861Z,9.50
2018-05-15T18:10:41.639Z,9.03
2018-05-15T18:13:07.382Z,7.07
2018-05-15T18:15:33.119Z,6.43
2018-05-15T18:17:58.911Z,8.50
2018-05-15T18:20:24.667Z,24.97
2018-05-15T18:22:50.440Z,6.50
2018-05-15T18:25:16.223Z,10.13
2018-05-15T18:27:41.965Z,6.70
2018-05-15T18:30:07.703Z,8.63
2018-05-15T18:32:33.556Z,7.57
2018-05-15T18:34:59.343Z,9.30
2018-05-15T18:37:25.087Z,7.83
2018-05-15T18:39:50.853Z,8.37
2018-05-15T18:42:16.611Z,8.67
2018-05-15T18:44:42.388Z,8.70
2018-05-15T18:47:08.139Z,7.77
2018-05-15T18:49:33.980Z,9.30
2018-05-15T18:51:59.752Z,6.33
2018-05-15T18:54:25.503Z,6.80
2018-05-15T18:56:51.282Z,7.60
2018-05-15T18:59:17.048Z,8.33
2018-05-15T19:01:42.806Z,7.97
2018-05-15T19:04:08.564Z,6.17
2018-05-15T19:06:34.295Z,5.63
2018-05-15T19:09:00.091Z,8.43
2018-05-15T19:11:25.860Z,6.83
2018-05-15T19:13:51.702Z,6.90
2018-05-15T19:16:17.445Z,6.23
2018-05-15T19:18:43.208Z,5.90
2018-05-15T19:21:08.983Z,5.40
2018-05-15T19:23:34.785Z,9.27
2018-05-15T19:26:00.548Z,8.07
2018-05-15T19:28:26.300Z,9.70
2018-05-15T19:30:52.055Z,8.60
2018-05-15T19:33:24.093Z,22.20
2018-05-15T19:35:59.812Z,6.87
2018-05-15T19:38:25.592Z,8.33
2018-05-15T19:40:51.367Z,6.87
2018-05-15T19:43:17.125Z,8.80
2018-05-15T19:45:42.899Z,6.40
2018-05-15T19:48:08.647Z,8.23
2018-05-15T19:50:41.203Z,9.63
2018-05-15T19:53:06.965Z,6.53
2018-05-15T19:55:32.808Z,5.40
2018-05-15T19:57:58.804Z,7.77
2018-05-15T20:00:24.574Z,7.83
2018-05-15T20:02:50.331Z,11.53
2018-05-15T20:05:16.120Z,5.83
2018-05-15T20:07:41.859Z,10.40
2018-05-15T20:10:07.632Z,5.97
2018-05-15T20:12:33.452Z,6.77
2018-05-15T20:14:59.376Z,8.13
2018-05-15T20:17:25.128Z,7.90
2018-05-15T20:19:50.892Z,13.57
2018-05-15T20:22:16.699Z,6.03
2018-05-15T20:24:42.459Z,9.03
2018-05-15T20:27:08.235Z,6.63
2018-05-15T20:29:33.986Z,7.90
2018-05-15T20:31:59.745Z,6.87
2018-05-15T20:34:25.535Z,6.80
2018-05-15T20:36:51.279Z,9.87
2018-05-15T20:39:17.037Z,6.67
2018-05-15T20:41:42.796Z,8.37
2018-05-15T20:44:08.568Z,8.70
2018-05-15T20:46:34.375Z,7.30
2018-05-15T20:49:00.131Z,7.83
2018-05-15T20:51:25.900Z,15.27
2018-05-15T20:53:51.683Z,11.93
2018-05-15T20:56:17.444Z,8.57
2018-05-15T20:58:43.212Z,9.03
2018-05-15T21:01:08.984Z,9.90
2018-05-15T21:03:34.753Z,6.17
2018-05-15T21:06:00.668Z,8.43
2018-05-15T21:08:26.441Z,9.03
2018-05-15T21:11:07.184Z,7.10
2018-05-15T21:13:33.007Z,7.93
2018-05-15T21:15:58.765Z,11.53
2018-05-15T21:18:24.559Z,6.50
2018-05-15T21:20:50.381Z,11.40
2018-05-15T21:23:16.121Z,5.80
2018-05-15T21:25:41.865Z,5.83
2018-05-15T21:28:07.653Z,7.17
2018-05-15T21:30:33.415Z,7.63
2018-05-15T21:32:59.169Z,11.17
2018-05-15T21:35:24.949Z,6.97
2018-05-15T21:37:50.708Z,7.10
2018-05-15T21:40:16.459Z,5.83
2018-05-15T21:42:42.239Z,6.00
2018-05-15T21:45:08.012Z,9.83
2018-05-15T21:47:33.774Z,5.37
2018-05-15T21:49:59.571Z,6.00
2018-05-15T21:52:25.324Z,6.57
2018-05-15T21:54:51.071Z,7.60
2018-05-15T21:57:16.852Z,8.20
2018-05-15T21:59:42.608Z,6.73
2018-05-15T22:02:08.379Z,7.73
2018-05-15T22:04:34.152Z,6.40
2018-05-15T22:06:59.928Z,6.13
2018-05-15T22:09:25.722Z,10.53
2018-05-15T22:12:03.811Z,6.93
2018-05-15T22:14:42.056Z,7.00
2018-05-15T22:17:20.131Z,7.40
2018-05-15T22:19:58.279Z,8.10
2018-05-15T22:22:23.976Z,6.77
2018-05-15T22:24:49.720Z,6.33
2018-05-15T22:27:15.480Z,7.27
2018-05-15T22:29:41.283Z,6.93
2018-05-15T22:32:07.048Z,8.50
2018-05-15T22:34:32.814Z,7.40
2018-05-15T22:36:58.614Z,9.37
2018-05-15T22:39:24.384Z,10.40
2018-05-15T22:41:50.176Z,6.93
2018-05-15T22:44:15.952Z,6.90
2018-05-15T22:46:41.740Z,8.67
2018-05-15T22:49:07.483Z,8.20
2018-05-15T22:51:33.254Z,6.43
2018-05-15T22:53:59.063Z,6.53
2018-05-15T22:56:24.803Z,7.20
2018-05-15T22:58:50.588Z,8.90
2018-05-15T23:01:16.347Z,8.83
2018-05-15T23:03:42.104Z,6.60
2018-05-15T23:06:07.958Z,7.63
2018-05-15T23:08:33.715Z,10.60
2018-05-15T23:10:59.488Z,8.47
2018-05-15T23:13:25.279Z,7.37
2018-05-15T23:15:51.107Z,9.67
2018-05-15T23:18:16.784Z,10.13
2018-05-15T23:20:42.547Z,9.40
2018-05-15T23:23:08.282Z,11.53
2018-05-15T23:25:34.029Z,8.60
2018-05-15T23:27:59.799Z,7.70
2018-05-15T23:30:25.617Z,9.10
2018-05-15T23:32:51.375Z,13.10
2018-05-15T23:35:17.132Z,7.27
2018-05-15T23:37:42.888Z,7.87
2018-05-15T23:40:08.645Z,8.03
2018-05-15T23:42:34.488Z,7.33
2018-05-15T23:45:00.248Z,7.63
2018-05-15T23:47:25.987Z,8.17
2018-05-15T23:49:51.757Z,9.00
2018-05-15T23:52:17.542Z,16.40
2018-05-15T23:54:43.284Z,11.27
2018-05-15T23:57:09.056Z,10.83
2018-05-15T23:59:34.814Z,11.00
